createdAt,value
2022-11-19T00:00:11.073Z,90.24
2022-11-19T00:01:42.723Z,89.97
2022-11-19T00:03:16.289Z,90.05
2022-11-19T00:04:47.899Z,90.35
2022-11-19T00:06:22.220Z,89.58
2022-11-19T00:07:53.771Z,89.49
2022-11-19T00:09:26.177Z,88.56
2022-11-19T00:11:09.506Z,88.58
2022-11-19T00:12:56.436Z,89.22
2022-11-19T00:14:28.326Z,89.09
2022-11-19T00:16:05.027Z,87.24
2022-11-19T00:17:36.536Z,86.58
2022-11-19T00:19:09.671Z,87.11
2022-11-19T00:20:41.305Z,86.94
2022-11-19T00:22:12.887Z,87.19
2022-11-19T00:23:44.525Z,87.91
2022-11-19T00:25:16.202Z,87.11
2022-11-19T00:26:47.840Z,86.87
2022-11-19T00:28:19.422Z,87.79
2022-11-19T00:29:50.979Z,88.11
2022-11-19T00:31:22.914Z,87.76
2022-11-19T00:32:56.410Z,87.55
2022-11-19T00:34:28.034Z,87.53
2022-11-19T00:36:00.195Z,87.34
2022-11-19T00:37:32.320Z,87.50
2022-11-19T00:39:04.340Z,87.92
2022-11-19T00:40:35.902Z,88.49
2022-11-19T00:42:07.681Z,88.92
2022-11-19T00:43:48.981Z,88.51
2022-11-19T00:45:20.779Z,88.76
2022-11-19T00:46:52.657Z,88.69
2022-11-19T00:48:24.259Z,88.87
2022-11-19T00:49:56.370Z,89.22
2022-11-19T00:51:30.377Z,89.73
2022-11-19T00:53:01.957Z,90.27
2022-11-19T00:54:33.571Z,89.92
2022-11-19T00:56:09.488Z,88.85
2022-11-19T00:57:41.172Z,88.01
2022-11-19T00:59:12.743Z,87.44
2022-11-19T01:00:44.468Z,88.08
2022-11-19T01:02:16.126Z,87.62
2022-11-19T01:03:48.111Z,86.83
2022-11-19T01:05:19.765Z,86.82
2022-11-19T01:06:51.414Z,87.52
2022-11-19T01:08:23.262Z,87.08
2022-11-19T01:09:54.798Z,87.80
2022-11-19T01:11:34.661Z,87.25
2022-11-19T01:13:25.076Z,87.42
2022-11-19T01:14:56.607Z,87.40
2022-11-19T01:16:31.370Z,87.93
2022-11-19T01:18:03.240Z,87.00
2022-11-19T01:19:34.830Z,86.53
2022-11-19T01:21:07.786Z,85.91
2022-11-19T01:22:39.355Z,85.97
2022-11-19T01:24:10.992Z,86.18
2022-11-19T01:25:42.656Z,86.95
2022-11-19T01:27:14.267Z,86.97
2022-11-19T01:28:46.609Z,86.20
2022-11-19T01:30:18.176Z,85.84
2022-11-19T01:31:49.764Z,85.63
2022-11-19T01:33:22.646Z,86.41
2022-11-19T01:34:54.324Z,85.75
2022-11-19T01:36:28.637Z,85.84
2022-11-19T01:38:01.142Z,86.22
2022-11-19T01:39:32.737Z,86.36
2022-11-19T01:41:04.642Z,87.03
2022-11-19T01:42:51.239Z,86.38
2022-11-19T01:45:06.497Z,86.88
2022-11-19T01:46:38.813Z,87.20
2022-11-19T01:48:16.389Z,87.49
2022-11-19T01:49:48.056Z,86.57
2022-11-19T01:51:39.818Z,87.05
2022-11-19T01:53:12.803Z,87.52
2022-11-19T01:54:49.239Z,86.55
2022-11-19T01:56:22.759Z,85.51
2022-11-19T01:57:57.929Z,85.34
2022-11-19T01:59:31.312Z,86.57
2022-11-19T02:01:03.339Z,86.29
2022-11-19T02:02:35.058Z,86.60
2022-11-19T02:04:07.775Z,87.02
2022-11-19T02:05:42.068Z,86.46
2022-11-19T02:07:14.216Z,86.09
2022-11-19T02:08:50.024Z,86.60
2022-11-19T02:10:39.177Z,86.69
2022-11-19T02:12:19.841Z,86.60
2022-11-19T02:14:19.415Z,86.61
2022-11-19T02:15:57.649Z,87.07
2022-11-19T02:17:47.492Z,86.46
2022-11-19T02:19:46.555Z,85.87
2022-11-19T02:21:30.424Z,85.82
2022-11-19T02:23:09.120Z,85.61
2022-11-19T02:24:51.985Z,86.26
2022-11-19T02:26:54.855Z,86.71
2022-11-19T02:28:35.609Z,86.54
2022-11-19T02:30:09.930Z,86.44
2022-11-19T02:31:57.536Z,86.23
2022-11-19T02:33:34.357Z,86.00
2022-11-19T02:35:35.200Z,86.65
2022-11-19T02:37:26.150Z,85.50
2022-11-19T02:39:09.078Z,86.06
2022-11-19T02:40:48.532Z,85.91
2022-11-19T02:42:29.707Z,86.28
2022-11-19T02:44:51.490Z,86.15
2022-11-19T02:46:23.793Z,85.80
2022-11-19T02:48:01.467Z,86.69
2022-11-19T02:49:37.145Z,87.17
2022-11-19T02:51:09.378Z,87.38
2022-11-19T02:52:45.444Z,87.33
2022-11-19T02:54:17.809Z,87.98
2022-11-19T02:56:08.195Z,87.75
2022-11-19T02:57:42.300Z,87.34
2022-11-19T02:59:35.413Z,87.89
2022-11-19T03:01:26.145Z,87.64
2022-11-19T03:03:46.175Z,87.32
2022-11-19T03:05:21.944Z,88.07
2022-11-19T03:06:54.645Z,87.74
2022-11-19T03:08:26.988Z,88.44
2022-11-19T03:10:03.009Z,88.38
2022-11-19T03:11:34.547Z,88.32
2022-11-19T03:13:34.755Z,88.45
2022-11-19T03:15:53.953Z,88.21
2022-11-19T03:17:51.565Z,88.59
2022-11-19T03:19:32.506Z,89.19
2022-11-19T03:21:15.844Z,89.48
2022-11-19T03:22:50.683Z,89.28
2022-11-19T03:24:37.994Z,89.57
2022-11-19T03:26:28.158Z,88.62
2022-11-19T03:28:07.398Z,89.28
2022-11-19T03:29:43.384Z,89.59
2022-11-19T03:31:17.062Z,89.34
2022-11-19T03:32:56.898Z,89.47
2022-11-19T03:34:31.742Z,89.44
2022-11-19T03:36:11.091Z,89.32
2022-11-19T03:37:45.786Z,89.22
2022-11-19T03:39:20.592Z,89.80
2022-11-19T03:40:55.050Z,89.82
2022-11-19T03:42:28.059Z,89.04
2022-11-19T03:44:08.757Z,88.19
2022-11-19T03:45:44.078Z,87.76
2022-11-19T03:47:20.629Z,88.66
2022-11-19T03:48:54.861Z,88.66
2022-11-19T03:50:56.781Z,88.72
2022-11-19T03:52:28.860Z,89.09
2022-11-19T03:54:00.614Z,89.18
2022-11-19T03:55:42.815Z,89.29
2022-11-19T03:57:18.358Z,88.87
2022-11-19T03:58:50.111Z,89.51
2022-11-19T04:00:21.683Z,88.91
2022-11-19T04:01:57.581Z,89.33
2022-11-19T04:03:29.116Z,89.75
2022-11-19T04:05:00.691Z,89.95
2022-11-19T04:06:32.275Z,89.47
2022-11-19T04:08:03.913Z,89.58
2022-11-19T04:09:35.883Z,89.84
2022-11-19T04:12:38.881Z,90.65
2022-11-19T04:14:10.592Z,90.51
2022-11-19T04:15:42.305Z,90.20
2022-11-19T04:17:14.744Z,89.91
2022-11-19T04:18:46.376Z,90.06
2022-11-19T04:20:18.067Z,90.24
2022-11-19T04:21:50.491Z,90.47
2022-11-19T04:23:22.094Z,89.88
2022-11-19T04:24:53.776Z,90.69
2022-11-19T04:26:25.480Z,90.58
2022-11-19T04:27:57.047Z,90.63
2022-11-19T04:29:28.701Z,91.11
2022-11-19T04:31:00.331Z,90.79
2022-11-19T04:32:32.063Z,91.05
2022-11-19T04:34:03.805Z,91.25
2022-11-19T04:35:35.363Z,90.87
2022-11-19T04:37:07.090Z,90.42
2022-11-19T04:38:38.729Z,91.03
2022-11-19T04:40:10.953Z,91.16
2022-11-19T04:41:42.552Z,90.92
2022-11-19T04:43:14.099Z,91.35
2022-11-19T04:44:45.701Z,90.87
2022-11-19T04:46:17.746Z,91.71
2022-11-19T04:47:49.333Z,91.12
2022-11-19T04:49:21.039Z,91.28
2022-11-19T04:50:52.839Z,91.24
2022-11-19T04:52:24.417Z,91.09
2022-11-19T04:53:56.140Z,90.92
2022-11-19T04:55:27.761Z,90.13
2022-11-19T04:56:59.306Z,90.63
2022-11-19T04:58:30.952Z,90.76
2022-11-19T05:00:02.704Z,90.49
2022-11-19T05:01:34.512Z,91.24
2022-11-19T05:03:06.165Z,91.00
2022-11-19T05:04:37.829Z,90.80
2022-11-19T05:06:09.415Z,91.33
2022-11-19T05:07:41.071Z,90.93
2022-11-19T05:09:12.733Z,91.31
2022-11-19T05:10:45.253Z,91.35
2022-11-19T05:12:16.885Z,90.81
2022-11-19T05:13:48.462Z,91.08
2022-11-19T05:15:20.024Z,90.42
2022-11-19T05:16:51.602Z,91.46
2022-11-19T05:18:23.859Z,91.29
2022-11-19T05:19:55.455Z,91.70
2022-11-19T05:21:27.886Z,91.80
2022-11-19T05:22:59.435Z,91.44
2022-11-19T05:24:31.037Z,91.30
2022-11-19T05:26:02.614Z,90.94
2022-11-19T05:27:34.297Z,91.75
2022-11-19T05:29:05.938Z,91.57
2022-11-19T05:30:37.552Z,91.41
2022-11-19T05:32:09.128Z,91.35
2022-11-19T05:33:40.801Z,91.20
2022-11-19T05:35:12.368Z,91.77
2022-11-19T05:36:44.045Z,91.70
2022-11-19T05:38:15.778Z,91.92
2022-11-19T05:39:47.426Z,91.80
2022-11-19T05:41:19.072Z,91.71
2022-11-19T05:42:50.619Z,92.10
2022-11-19T05:44:22.211Z,92.18
2022-11-19T05:45:53.808Z,92.22
2022-11-19T05:47:25.393Z,91.56
2022-11-19T05:48:57.023Z,91.75
2022-11-19T05:50:28.548Z,92.01
2022-11-19T05:52:01.917Z,91.75
2022-11-19T05:53:33.461Z,91.83
2022-11-19T05:55:05.691Z,91.53
2022-11-19T05:56:37.285Z,92.00
2022-11-19T05:58:08.969Z,92.48
2022-11-19T05:59:43.861Z,92.75
2022-11-19T06:01:16.008Z,92.70
2022-11-19T06:02:47.631Z,92.52
2022-11-19T06:04:19.329Z,92.83
2022-11-19T06:05:51.060Z,92.77
2022-11-19T06:07:22.794Z,92.40
2022-11-19T06:08:54.392Z,92.13
2022-11-19T06:10:25.969Z,92.24
2022-11-19T06:11:57.563Z,92.18
2022-11-19T06:13:29.148Z,91.57
2022-11-19T06:15:02.001Z,91.25
2022-11-19T06:16:33.605Z,91.95
2022-11-19T06:18:05.248Z,92.05
2022-11-19T06:19:36.866Z,90.73
2022-11-19T06:21:12.160Z,90.65
2022-11-19T06:22:44.031Z,91.01
2022-11-19T06:24:15.840Z,91.62
2022-11-19T06:25:49.478Z,91.52
2022-11-19T06:27:21.004Z,92.04
2022-11-19T06:28:53.123Z,91.49
2022-11-19T06:30:24.735Z,90.88
2022-11-19T06:31:56.308Z,90.91
2022-11-19T06:33:28.177Z,90.47
2022-11-19T06:34:59.773Z,90.22
2022-11-19T06:36:36.075Z,90.31
2022-11-19T06:38:09.092Z,91.12
2022-11-19T06:39:40.709Z,90.25
2022-11-19T06:41:12.250Z,90.16
2022-11-19T06:42:48.436Z,90.57
2022-11-19T06:44:22.512Z,91.18
2022-11-19T06:45:54.062Z,91.64
2022-11-19T06:47:25.655Z,91.86
2022-11-19T06:48:57.304Z,91.90
2022-11-19T06:50:28.900Z,92.03
2022-11-19T06:52:00.474Z,91.57
2022-11-19T06:53:33.053Z,92.23
2022-11-19T06:55:05.160Z,92.22
2022-11-19T06:56:36.801Z,92.87
2022-11-19T06:58:09.116Z,93.24
2022-11-19T06:59:40.805Z,92.55
2022-11-19T07:01:14.357Z,92.63
2022-11-19T07:02:47.474Z,91.72
2022-11-19T07:04:19.027Z,92.27
2022-11-19T07:05:55.675Z,92.17
2022-11-19T07:07:27.558Z,92.09
2022-11-19T07:08:59.210Z,92.74
2022-11-19T07:10:33.363Z,92.69
2022-11-19T07:12:05.147Z,92.46
2022-11-19T07:13:55.774Z,92.55
2022-11-19T07:15:27.819Z,91.97
2022-11-19T07:16:59.372Z,91.26
2022-11-19T07:18:30.974Z,91.51
2022-11-19T07:20:02.730Z,91.14
2022-11-19T07:21:35.005Z,91.61
2022-11-19T07:23:10.476Z,91.79
2022-11-19T07:24:42.003Z,91.68
2022-11-19T07:26:14.246Z,90.41
2022-11-19T07:27:47.194Z,89.62
2022-11-19T07:29:18.947Z,89.69
2022-11-19T07:30:50.863Z,89.97
2022-11-19T07:32:22.561Z,90.43
2022-11-19T07:33:54.127Z,91.25
2022-11-19T07:35:25.757Z,91.17
2022-11-19T07:36:57.381Z,90.57
2022-11-19T07:38:32.725Z,90.93
2022-11-19T07:40:07.968Z,90.88
2022-11-19T07:41:58.431Z,90.75
2022-11-19T07:43:30.415Z,90.85
2022-11-19T07:45:03.083Z,91.25
2022-11-19T07:46:35.161Z,91.59
2022-11-19T07:48:06.708Z,91.81
2022-11-19T07:49:38.560Z,91.45
2022-11-19T07:51:10.218Z,91.68
2022-11-19T07:52:41.802Z,89.67
2022-11-19T07:54:14.263Z,89.09
2022-11-19T07:55:47.380Z,89.57
2022-11-19T07:57:18.980Z,88.96
2022-11-19T07:58:50.628Z,88.41
2022-11-19T08:00:22.541Z,88.13
2022-11-19T08:01:54.201Z,88.52
2022-11-19T08:03:25.937Z,88.41
2022-11-19T08:04:57.489Z,88.46
2022-11-19T08:06:30.055Z,89.44
2022-11-19T08:08:01.636Z,89.11
2022-11-19T08:09:33.454Z,89.25
2022-11-19T08:11:07.703Z,89.26
2022-11-19T08:12:39.217Z,89.44
2022-11-19T08:14:13.528Z,88.27
2022-11-19T08:15:45.134Z,88.36
2022-11-19T08:17:54.869Z,87.47
2022-11-19T08:19:26.561Z,88.03
2022-11-19T08:21:06.510Z,88.15
2022-11-19T08:22:40.666Z,88.66
2022-11-19T08:24:13.276Z,88.56
2022-11-19T08:25:45.271Z,88.80
2022-11-19T08:27:17.273Z,88.50
2022-11-19T08:28:48.859Z,88.26
2022-11-19T08:30:20.497Z,86.99
2022-11-19T08:31:52.114Z,87.15
2022-11-19T08:33:23.907Z,87.42
2022-11-19T08:34:55.439Z,87.51
2022-11-19T08:36:27.056Z,87.24
2022-11-19T08:37:58.653Z,87.67
2022-11-19T08:39:30.745Z,87.56
2022-11-19T08:41:20.656Z,86.92
2022-11-19T08:43:01.502Z,86.78
2022-11-19T08:44:33.153Z,87.23
2022-11-19T08:46:04.937Z,86.56
2022-11-19T08:47:36.481Z,86.02
2022-11-19T08:49:08.599Z,86.63
2022-11-19T08:50:41.730Z,86.26
2022-11-19T08:52:14.353Z,86.39
2022-11-19T08:53:46.839Z,86.18
2022-11-19T08:55:18.518Z,84.52
2022-11-19T08:56:50.188Z,85.24
2022-11-19T08:58:21.834Z,84.47
2022-11-19T08:59:53.397Z,84.55
2022-11-19T09:01:25.236Z,84.14
2022-11-19T09:02:57.050Z,83.63
2022-11-19T09:04:28.706Z,84.09
2022-11-19T09:06:00.980Z,83.89
2022-11-19T09:07:32.600Z,81.95
2022-11-19T09:09:04.721Z,83.43
2022-11-19T09:10:37.865Z,83.81
2022-11-19T09:12:09.948Z,82.98
2022-11-19T09:13:42.557Z,81.62
2022-11-19T09:15:14.175Z,82.45
2022-11-19T09:16:45.827Z,82.49
2022-11-19T09:18:17.968Z,81.51
2022-11-19T09:19:50.134Z,82.17
2022-11-19T09:21:24.245Z,82.77
2022-11-19T09:22:55.981Z,82.80
2022-11-19T09:24:27.615Z,81.57
2022-11-19T09:26:05.001Z,83.08
2022-11-19T09:27:37.131Z,81.48
2022-11-19T09:29:08.826Z,82.27
2022-11-19T09:30:40.386Z,82.22
2022-11-19T09:32:12.018Z,80.99
2022-11-19T09:33:46.450Z,80.68
2022-11-19T09:35:18.665Z,80.64
2022-11-19T09:36:51.637Z,80.67
2022-11-19T09:38:23.340Z,80.47
2022-11-19T09:39:55.066Z,80.16
2022-11-19T09:41:36.449Z,79.73
2022-11-19T09:43:44.598Z,80.01
2022-11-19T09:45:26.227Z,81.00
2022-11-19T09:47:06.885Z,80.33
2022-11-19T09:48:39.938Z,80.54
2022-11-19T09:50:17.564Z,80.97
2022-11-19T09:52:01.326Z,80.93
2022-11-19T09:54:01.287Z,81.58
2022-11-19T09:55:40.287Z,81.62
2022-11-19T09:57:18.169Z,81.63
2022-11-19T09:58:49.994Z,82.15
2022-11-19T10:00:25.413Z,81.90
2022-11-19T10:01:57.501Z,81.55
2022-11-19T10:03:33.417Z,80.75
2022-11-19T10:05:06.104Z,79.17
2022-11-19T10:07:07.084Z,79.37
2022-11-19T10:09:05.845Z,79.74
2022-11-19T10:10:41.710Z,78.79
2022-11-19T10:12:42.297Z,79.66
2022-11-19T10:14:37.315Z,79.47
2022-11-19T10:16:08.725Z,79.31
2022-11-19T10:18:01.996Z,80.21
2022-11-19T10:20:04.049Z,79.88
2022-11-19T10:22:10.946Z,78.78
2022-11-19T10:23:50.657Z,78.86
2022-11-19T10:25:27.215Z,78.26
2022-11-19T10:27:07.300Z,77.60
2022-11-19T10:28:43.771Z,77.38
2022-11-19T10:30:20.107Z,77.02
2022-11-19T10:31:52.121Z,75.80
2022-11-19T10:33:33.937Z,76.06
2022-11-19T10:35:16.658Z,76.02
2022-11-19T10:36:56.124Z,75.81
2022-11-19T10:38:39.964Z,73.50
2022-11-19T10:40:17.134Z,75.63
2022-11-19T10:41:57.454Z,75.27
2022-11-19T10:43:32.457Z,74.79
2022-11-19T10:45:19.133Z,74.88
2022-11-19T10:46:51.070Z,74.99
2022-11-19T10:48:25.087Z,74.24
2022-11-19T10:49:57.175Z,73.57
2022-11-19T10:51:31.066Z,73.35
2022-11-19T10:53:29.193Z,71.97
2022-11-19T10:55:21.789Z,73.04
2022-11-19T10:56:55.415Z,72.48
2022-11-19T10:58:37.433Z,71.07
2022-11-19T11:00:09.745Z,71.12
2022-11-19T11:01:44.986Z,69.23
2022-11-19T11:03:38.239Z,69.22
2022-11-19T11:05:13.495Z,67.98
2022-11-19T11:06:51.616Z,66.73
2022-11-19T11:08:23.785Z,67.58
2022-11-19T11:09:55.368Z,67.88
2022-11-19T11:11:47.069Z,69.18
2022-11-19T11:13:55.456Z,70.83
2022-11-19T11:16:18.086Z,71.41
2022-11-19T11:18:02.197Z,72.32
2022-11-19T11:19:34.044Z,72.92
2022-11-19T11:21:06.503Z,74.37
2022-11-19T11:22:38.826Z,73.84
2022-11-19T11:24:12.261Z,72.65
2022-11-19T11:26:15.034Z,73.33
2022-11-19T11:27:47.309Z,73.95
2022-11-19T11:29:19.100Z,74.07
2022-11-19T11:31:09.772Z,74.59
2022-11-19T11:32:41.704Z,73.69
2022-11-19T11:34:15.673Z,75.01
2022-11-19T11:35:50.056Z,75.63
2022-11-19T11:37:22.657Z,74.79
2022-11-19T11:38:56.539Z,74.55
2022-11-19T11:40:29.017Z,74.58
2022-11-19T11:42:05.818Z,73.74
2022-11-19T11:43:41.812Z,73.65
2022-11-19T11:45:26.548Z,74.14
2022-11-19T11:47:05.162Z,73.53
2022-11-19T11:48:45.651Z,74.32
2022-11-19T11:50:28.120Z,74.75
2022-11-19T11:52:08.912Z,74.33
2022-11-19T11:53:43.047Z,74.56
2022-11-19T11:55:29.508Z,72.82
2022-11-19T11:57:19.486Z,73.20
2022-11-19T11:58:51.036Z,71.79
2022-11-19T12:00:37.835Z,72.65
2022-11-19T12:02:21.304Z,72.30
2022-11-19T12:03:55.561Z,70.99
2022-11-19T12:05:31.520Z,71.08
2022-11-19T12:07:05.875Z,71.12
2022-11-19T12:08:47.465Z,70.43
2022-11-19T12:10:45.463Z,68.99
2022-11-19T12:12:17.007Z,69.05
2022-11-19T12:13:57.848Z,68.99
2022-11-19T12:15:44.282Z,69.30
2022-11-19T12:17:49.956Z,69.13
2022-11-19T12:19:42.950Z,70.69
2022-11-19T12:21:39.458Z,70.67
2022-11-19T12:23:33.342Z,71.23
2022-11-19T12:25:26.095Z,72.63
2022-11-19T12:27:18.666Z,72.32
2022-11-19T12:29:11.929Z,72.55
2022-11-19T12:30:52.529Z,71.08
2022-11-19T12:33:01.395Z,70.95
2022-11-19T12:34:47.516Z,70.90
2022-11-19T12:36:37.092Z,71.19
2022-11-19T12:38:45.648Z,71.24
2022-11-19T12:40:40.147Z,70.92
2022-11-19T12:42:38.036Z,71.72
2022-11-19T12:44:35.332Z,70.23
2022-11-19T12:46:16.257Z,69.81
2022-11-19T12:48:20.503Z,70.51
2022-11-19T12:50:11.270Z,70.85
2022-11-19T12:52:20.425Z,70.25
2022-11-19T12:54:00.811Z,71.07
2022-11-19T12:55:58.514Z,70.53
2022-11-19T12:57:45.418Z,72.03
2022-11-19T12:59:29.776Z,71.99
2022-11-19T13:01:09.791Z,72.53
2022-11-19T13:02:52.115Z,72.83
2022-11-19T13:04:28.128Z,72.50
2022-11-19T13:06:11.901Z,72.74
2022-11-19T13:07:57.969Z,71.19
2022-11-19T13:09:32.281Z,70.73
2022-11-19T13:11:36.367Z,69.93
2022-11-19T13:13:11.881Z,70.01
2022-11-19T13:15:03.125Z,69.87
2022-11-19T13:16:35.587Z,69.40
2022-11-19T13:18:13.984Z,69.74
2022-11-19T13:19:51.290Z,69.69
2022-11-19T13:21:39.229Z,69.45
2022-11-19T13:23:19.156Z,70.21
2022-11-19T13:24:57.228Z,70.73
2022-11-19T13:26:34.482Z,70.18
2022-11-19T13:28:17.443Z,68.69
2022-11-19T13:29:56.102Z,70.43
2022-11-19T13:31:40.130Z,70.22
2022-11-19T13:33:20.523Z,70.11
2022-11-19T13:35:25.326Z,69.58
2022-11-19T13:37:04.178Z,69.75
2022-11-19T13:38:43.712Z,69.65
2022-11-19T13:40:18.017Z,70.49
2022-11-19T13:42:10.988Z,70.90
2022-11-19T13:44:02.115Z,69.54
2022-11-19T13:45:35.782Z,70.40
2022-11-19T13:47:42.072Z,69.95
2022-11-19T13:49:31.388Z,68.55
2022-11-19T13:51:09.754Z,69.89
2022-11-19T13:52:57.704Z,70.40
2022-11-19T13:54:41.303Z,69.16
2022-11-19T13:56:15.567Z,70.26
2022-11-19T13:57:48.884Z,70.24
2022-11-19T13:59:29.486Z,69.61
2022-11-19T14:01:08.474Z,70.19
2022-11-19T14:02:55.542Z,68.49
2022-11-19T14:05:04.148Z,67.76
2022-11-19T14:06:50.924Z,68.83
2022-11-19T14:09:01.031Z,69.86
2022-11-19T14:10:49.946Z,69.02
2022-11-19T14:12:39.592Z,70.13
2022-11-19T14:14:54.667Z,69.30
2022-11-19T14:17:11.354Z,68.96
2022-11-19T14:19:05.570Z,68.47
2022-11-19T14:21:01.757Z,68.55
2022-11-19T14:23:12.117Z,69.14
2022-11-19T14:25:02.492Z,69.06
2022-11-19T14:26:40.106Z,67.81
2022-11-19T14:28:43.926Z,67.61
2022-11-19T14:30:19.094Z,66.74
2022-11-19T14:32:06.155Z,67.11
2022-11-19T14:33:41.731Z,66.79
2022-11-19T14:35:25.471Z,67.57
2022-11-19T14:37:00.844Z,65.90
2022-11-19T14:38:36.456Z,66.40
2022-11-19T14:40:23.219Z,66.58
2022-11-19T14:42:17.402Z,66.93
2022-11-19T14:44:10.170Z,67.71
2022-11-19T14:46:01.821Z,67.05
2022-11-19T14:47:40.415Z,67.78
2022-11-19T14:49:21.108Z,67.49
2022-11-19T14:51:15.557Z,68.30
2022-11-19T14:52:53.503Z,68.44
2022-11-19T14:54:32.336Z,68.18
2022-11-19T14:56:12.006Z,69.13
2022-11-19T14:57:44.725Z,69.03
2022-11-19T14:59:16.309Z,68.37
2022-11-19T15:00:48.267Z,68.90
2022-11-19T15:02:45.632Z,70.04
2022-11-19T15:04:22.219Z,69.20
2022-11-19T15:05:54.045Z,71.20
2022-11-19T15:07:42.933Z,70.05
2022-11-19T15:09:14.938Z,69.96
2022-11-19T15:10:49.342Z,70.50
2022-11-19T15:12:21.947Z,71.06
2022-11-19T15:14:35.515Z,70.94
2022-11-19T15:16:27.528Z,70.97
2022-11-19T15:18:02.543Z,71.67
2022-11-19T15:19:41.040Z,71.61
2022-11-19T15:21:31.832Z,71.65
2022-11-19T15:23:30.122Z,71.06
2022-11-19T15:25:21.751Z,72.37
2022-11-19T15:27:24.223Z,71.66
2022-11-19T15:29:18.913Z,71.47
2022-11-19T15:30:50.603Z,71.46
2022-11-19T15:32:40.832Z,72.26
2022-11-19T15:35:04.100Z,72.31
2022-11-19T15:36:33.542Z,73.48
2022-11-19T15:38:19.749Z,73.97
2022-11-19T15:39:54.238Z,73.81
2022-11-19T15:41:29.155Z,72.85
2022-11-19T15:43:12.984Z,73.46
2022-11-19T15:44:57.520Z,72.20
2022-11-19T15:46:32.237Z,73.79
2022-11-19T15:48:16.046Z,73.33
2022-11-19T15:49:50.056Z,76.12
2022-11-19T15:51:23.028Z,75.81
2022-11-19T15:52:58.713Z,76.44
2022-11-19T15:54:35.194Z,77.59
2022-11-19T15:56:11.658Z,78.31
2022-11-19T15:57:45.406Z,77.87
2022-11-19T15:59:20.198Z,78.28
2022-11-19T16:00:53.812Z,77.93
2022-11-19T16:02:40.900Z,78.31
2022-11-19T16:04:16.753Z,78.68
2022-11-19T16:06:22.489Z,79.27
2022-11-19T16:07:54.594Z,77.51
2022-11-19T16:09:26.687Z,76.12
2022-11-19T16:11:20.573Z,76.15
2022-11-19T16:13:18.468Z,78.33
2022-11-19T16:15:13.661Z,77.24
2022-11-19T16:17:04.014Z,78.61
2022-11-19T16:18:49.467Z,79.05
2022-11-19T16:20:22.209Z,78.71
2022-11-19T16:21:59.823Z,79.81
2022-11-19T16:23:31.380Z,80.97
2022-11-19T16:25:27.002Z,80.34
2022-11-19T16:27:01.064Z,80.51
2022-11-19T16:28:32.715Z,80.32
2022-11-19T16:30:04.932Z,80.22
2022-11-19T16:31:36.625Z,79.72
2022-11-19T16:33:23.582Z,79.51
2022-11-19T16:35:08.807Z,79.86
2022-11-19T16:36:46.133Z,80.44
2022-11-19T16:38:28.786Z,80.02
2022-11-19T16:40:00.486Z,79.63
2022-11-19T16:41:52.528Z,78.55
2022-11-19T16:43:24.682Z,78.81
2022-11-19T16:45:06.513Z,78.16
2022-11-19T16:46:38.853Z,78.68
2022-11-19T16:48:50.670Z,78.46
2022-11-19T16:50:25.235Z,78.52
2022-11-19T16:51:58.061Z,79.46
2022-11-19T16:53:46.606Z,80.34
2022-11-19T16:55:18.156Z,78.89
2022-11-19T16:56:49.813Z,79.09
2022-11-19T16:58:27.626Z,79.24
2022-11-19T17:00:13.033Z,79.45
2022-11-19T17:01:57.606Z,78.97
2022-11-19T17:03:34.575Z,80.15
2022-11-19T17:05:09.725Z,79.54
2022-11-19T17:06:42.725Z,80.17
2022-11-19T17:08:21.804Z,80.32
2022-11-19T17:10:12.212Z,79.65
2022-11-19T17:12:26.215Z,79.65
2022-11-19T17:13:57.801Z,80.41
2022-11-19T17:15:41.488Z,80.42
2022-11-19T17:17:29.351Z,80.07
2022-11-19T17:19:01.133Z,80.40
2022-11-19T17:20:33.255Z,80.16
2022-11-19T17:22:17.669Z,80.94
2022-11-19T17:23:50.858Z,81.56
2022-11-19T17:25:23.337Z,80.45
2022-11-19T17:26:55.060Z,80.67
2022-11-19T17:28:26.693Z,81.36
2022-11-19T17:30:05.873Z,82.46
2022-11-19T17:31:37.532Z,82.32
2022-11-19T17:33:15.939Z,81.94
2022-11-19T17:34:49.124Z,81.53
2022-11-19T17:36:22.055Z,80.92
2022-11-19T17:37:53.944Z,81.74
2022-11-19T17:39:25.977Z,81.59
2022-11-19T17:41:02.488Z,80.83
2022-11-19T17:42:52.588Z,81.40
2022-11-19T17:44:34.701Z,81.85
2022-11-19T17:46:06.423Z,81.54
2022-11-19T17:47:38.031Z,80.51
2022-11-19T17:49:09.674Z,80.16
2022-11-19T17:50:41.260Z,80.57
2022-11-19T17:52:22.680Z,80.21
2022-11-19T17:53:55.627Z,80.78
2022-11-19T17:55:27.669Z,80.80
2022-11-19T17:56:59.178Z,79.87
2022-11-19T17:58:30.792Z,78.89
2022-11-19T18:00:02.477Z,79.46
2022-11-19T18:01:36.444Z,79.65
2022-11-19T18:03:17.857Z,79.00
2022-11-19T18:04:49.762Z,79.53
2022-11-19T18:06:21.428Z,80.33
2022-11-19T18:07:53.436Z,79.33
2022-11-19T18:09:25.052Z,79.89
2022-11-19T18:10:56.781Z,79.75
2022-11-19T18:12:28.303Z,79.33
2022-11-19T18:14:10.037Z,78.33
2022-11-19T18:15:41.952Z,79.40
2022-11-19T18:17:15.071Z,79.92
2022-11-19T18:18:46.903Z,80.03
2022-11-19T18:20:18.600Z,80.11
2022-11-19T18:21:50.565Z,80.21
2022-11-19T18:23:22.221Z,80.53
2022-11-19T18:24:54.212Z,81.08
2022-11-19T18:26:25.850Z,80.80
2022-11-19T18:27:57.633Z,79.41
2022-11-19T18:29:31.940Z,79.95
2022-11-19T18:31:03.842Z,79.13
2022-11-19T18:32:35.701Z,79.51
2022-11-19T18:34:13.262Z,79.18
2022-11-19T18:35:44.977Z,78.66
2022-11-19T18:37:16.544Z,78.75
2022-11-19T18:38:48.282Z,79.05
2022-11-19T18:40:20.095Z,78.75
2022-11-19T18:41:51.767Z,77.85
2022-11-19T18:43:41.995Z,77.53
2022-11-19T18:45:14.166Z,78.32
2022-11-19T18:46:45.790Z,77.28
2022-11-19T18:48:17.334Z,77.88
2022-11-19T18:49:48.911Z,78.21
2022-11-19T18:51:21.377Z,77.96
2022-11-19T18:52:53.199Z,78.29
2022-11-19T18:54:24.936Z,77.83
2022-11-19T18:55:56.972Z,77.78
2022-11-19T18:57:28.832Z,78.13
2022-11-19T18:59:04.527Z,77.62
2022-11-19T19:00:36.381Z,78.29
2022-11-19T19:02:09.923Z,78.37
2022-11-19T19:03:41.662Z,78.86
2022-11-19T19:05:13.262Z,78.98
2022-11-19T19:06:44.928Z,78.85
2022-11-19T19:08:16.551Z,79.34
2022-11-19T19:09:48.866Z,79.29
2022-11-19T19:11:38.799Z,80.15
2022-11-19T19:13:10.414Z,80.18
2022-11-19T19:14:42.982Z,81.05
2022-11-19T19:16:14.592Z,80.87
2022-11-19T19:17:46.208Z,81.16
2022-11-19T19:19:20.155Z,80.60
2022-11-19T19:20:52.102Z,80.94
2022-11-19T19:22:23.850Z,81.15
2022-11-19T19:23:55.660Z,81.32
2022-11-19T19:25:27.228Z,81.19
2022-11-19T19:26:59.777Z,80.90
2022-11-19T19:28:31.429Z,80.93
2022-11-19T19:30:04.421Z,80.77
2022-11-19T19:31:36.206Z,81.18
2022-11-19T19:33:07.883Z,81.49
2022-11-19T19:34:39.483Z,81.18
2022-11-19T19:36:11.088Z,81.42
2022-11-19T19:37:42.875Z,80.33
2022-11-19T19:39:14.481Z,81.05
2022-11-19T19:40:46.223Z,81.02
2022-11-19T19:42:17.837Z,81.81
2022-11-19T19:43:50.343Z,81.85
2022-11-19T19:45:22.073Z,82.63
2022-11-19T19:46:53.753Z,81.67
2022-11-19T19:48:25.319Z,82.45
2022-11-19T19:49:57.905Z,82.06
2022-11-19T19:51:31.254Z,82.14
2022-11-19T19:53:03.188Z,82.19
2022-11-19T19:54:34.886Z,81.55
2022-11-19T19:56:20.536Z,80.96
2022-11-19T19:57:52.628Z,82.10
2022-11-19T19:59:24.809Z,82.23
2022-11-19T20:01:06.787Z,81.57
2022-11-19T20:02:38.327Z,81.96
2022-11-19T20:04:10.928Z,82.16
2022-11-19T20:05:48.366Z,81.81
2022-11-19T20:07:19.966Z,81.77
2022-11-19T20:08:51.845Z,81.93
2022-11-19T20:10:23.510Z,82.36
2022-11-19T20:11:55.178Z,82.78
2022-11-19T20:13:30.601Z,81.59
2022-11-19T20:15:02.606Z,81.58
2022-11-19T20:16:35.195Z,82.18
2022-11-19T20:18:06.934Z,82.31
2022-11-19T20:19:38.490Z,82.16
2022-11-19T20:21:16.118Z,81.49
2022-11-19T20:22:47.682Z,81.83
2022-11-19T20:24:20.212Z,82.22
2022-11-19T20:25:56.377Z,82.55
2022-11-19T20:27:27.983Z,82.86
2022-11-19T20:29:01.932Z,82.77
2022-11-19T20:30:33.689Z,82.97
2022-11-19T20:32:05.373Z,82.36
2022-11-19T20:33:38.007Z,81.44
2022-11-19T20:35:09.593Z,81.62
2022-11-19T20:36:41.330Z,81.60
2022-11-19T20:38:12.966Z,79.82
2022-11-19T20:39:44.636Z,80.10
2022-11-19T20:41:35.966Z,80.60
2022-11-19T20:43:27.303Z,80.26
2022-11-19T20:44:58.974Z,81.31
2022-11-19T20:46:30.536Z,80.79
2022-11-19T20:48:02.178Z,80.98
2022-11-19T20:49:38.147Z,81.60
2022-11-19T20:51:10.770Z,82.01
2022-11-19T20:52:42.411Z,81.58
2022-11-19T20:54:14.540Z,82.38
2022-11-19T20:56:04.490Z,82.57
2022-11-19T20:57:36.855Z,82.96
2022-11-19T20:59:08.942Z,82.22